createdAt,value
2022-08-11T00:01:13.927Z,102407.63
2022-08-11T00:03:48.078Z,102405.91
2022-08-11T00:06:27.008Z,102385.56
2022-08-11T00:08:56.030Z,102410.31
2022-08-11T00:11:34.148Z,102408.66
2022-08-11T00:14:04.180Z,102390.06
2022-08-11T00:16:34.150Z,102390.81
2022-08-11T00:19:03.622Z,102402.31
2022-08-11T00:22:05.363Z,102406.94
2022-08-11T00:24:53.684Z,102396.31
2022-08-11T00:27:34.251Z,102399.97
2022-08-11T00:30:03.014Z,102391.94
2022-08-11T00:32:31.896Z,102391.06
2022-08-11T00:35:56.294Z,102385.75
2022-08-11T00:37:53.863Z,102394.53
2022-08-11T00:40:29.649Z,102385.78
2022-08-11T00:43:20.261Z,102387.47
2022-08-11T00:46:07.211Z,102381.38
2022-08-11T00:48:46.536Z,102383.97
2022-08-11T00:51:26.161Z,102376.84
2022-08-11T00:54:07.796Z,102355.84
2022-08-11T00:57:36.151Z,102396.53
2022-08-11T01:00:07.234Z,102395.63
2022-08-11T01:03:02.757Z,102385.94
2022-08-11T01:05:52.759Z,102387.66
2022-08-11T01:08:57.328Z,102386.00
2022-08-11T01:11:55.156Z,102385.13
2022-08-11T01:14:47.567Z,102389.59
2022-08-11T01:17:54.253Z,102390.50
2022-08-11T01:21:08.015Z,102387.81
2022-08-11T01:24:28.989Z,102385.19
2022-08-11T01:27:19.325Z,102391.28
2022-08-11T01:30:18.968Z,102392.19
2022-08-11T01:33:20.864Z,102386.00
2022-08-11T01:36:24.071Z,102386.00
2022-08-11T01:39:43.903Z,102380.66
2022-08-11T01:43:08.754Z,102378.84
2022-08-11T01:45:43.132Z,102372.69
2022-08-11T01:48:23.589Z,102374.44
2022-08-11T01:51:31.271Z,102376.22
2022-08-11T01:54:05.955Z,102380.69
2022-08-11T01:56:45.945Z,102385.13
2022-08-11T01:59:22.768Z,102387.78
2022-08-11T02:02:04.039Z,102391.34
2022-08-11T02:04:37.298Z,102371.91
2022-08-11T02:07:15.283Z,102386.03
2022-08-11T02:10:25.089Z,102394.03
2022-08-11T02:13:14.599Z,102387.81
2022-08-11T02:15:48.664Z,102388.72
2022-08-11T02:18:24.276Z,102388.72
2022-08-11T02:21:15.275Z,102389.59
2022-08-11T02:24:07.106Z,102376.31
2022-08-11T02:26:42.207Z,102393.13
2022-08-11T02:29:20.997Z,102382.47
2022-08-11T02:32:33.774Z,102373.53
2022-08-11T02:35:11.635Z,102380.69
2022-08-11T02:37:50.354Z,102386.91
2022-08-11T02:40:31.474Z,102387.81
2022-08-11T02:43:15.169Z,102371.84
2022-08-11T02:45:58.061Z,102386.00
2022-08-11T02:48:55.286Z,102380.78
2022-08-11T02:51:34.557Z,102386.09
2022-08-11T02:54:12.234Z,102384.31
2022-08-11T02:56:52.509Z,102386.03
2022-08-11T02:59:47.364Z,102380.69
2022-08-11T03:02:28.072Z,102390.53
2022-08-11T03:05:08.228Z,102371.94
2022-08-11T03:07:49.680Z,102383.47
2022-08-11T03:10:23.931Z,102382.56
2022-08-11T03:13:15.992Z,102383.47
2022-08-11T03:16:07.457Z,102382.56
2022-08-11T03:18:44.511Z,102381.66
2022-08-11T03:21:23.664Z,102369.22
2022-08-11T03:24:01.798Z,102366.66
2022-08-11T03:26:38.746Z,102361.41
2022-08-11T03:29:12.780Z,102368.47
2022-08-11T03:31:56.833Z,102334.94
2022-08-11T03:34:27.323Z,102368.41
2022-08-11T03:37:16.273Z,102376.38
2022-08-11T03:39:57.220Z,102369.28
2022-08-11T03:42:33.557Z,102368.47
2022-08-11T03:45:08.633Z,102372.03
2022-08-11T03:47:54.870Z,102375.63
2022-08-11T03:50:44.859Z,102363.34
2022-08-11T03:53:22.861Z,102372.19
2022-08-11T03:56:25.055Z,102382.00
2022-08-11T03:59:20.533Z,102385.53
2022-08-11T04:02:24.407Z,102384.66
2022-08-11T04:05:19.207Z,102383.69
2022-08-11T04:08:14.444Z,102385.50
2022-08-11T04:11:10.480Z,102379.34
2022-08-11T04:14:30.934Z,102391.72
2022-08-11T04:17:37.146Z,102400.50
2022-08-11T04:20:24.420Z,102403.19
2022-08-11T04:24:35.917Z,102393.41
2022-08-11T04:26:37.992Z,102386.38
2022-08-11T04:29:20.207Z,102400.59
2022-08-11T04:32:05.731Z,102390.00
2022-08-11T04:35:10.502Z,102392.59
2022-08-11T04:38:03.256Z,102391.69
2022-08-11T04:41:05.137Z,102393.50
2022-08-11T04:44:06.116Z,102395.19
2022-08-11T04:46:55.128Z,102393.44
2022-08-11T04:49:54.402Z,102396.91
2022-08-11T04:53:01.302Z,102397.78
2022-08-11T04:56:22.210Z,102401.22
2022-08-11T04:59:27.597Z,102393.22
2022-08-11T05:02:25.349Z,102400.22
2022-08-11T05:05:22.158Z,102396.59
2022-08-11T05:08:43.947Z,102389.53
2022-08-11T05:11:46.146Z,102392.06
2022-08-11T05:14:52.204Z,102389.38
2022-08-11T05:17:46.934Z,102385.78
2022-08-11T05:20:33.366Z,102391.97
2022-08-11T05:23:25.428Z,102387.47
2022-08-11T05:26:47.718Z,102394.50
2022-08-11T05:29:24.415Z,102404.19
2022-08-11T05:32:17.869Z,102399.78
2022-08-11T05:34:53.518Z,102393.44
2022-08-11T05:37:27.889Z,102392.50
2022-08-11T05:40:24.228Z,102385.38
2022-08-11T05:43:15.316Z,102384.50
2022-08-11T05:46:05.470Z,102401.34
2022-08-11T05:48:55.905Z,102401.28
2022-08-11T05:51:54.813Z,102399.50
2022-08-11T05:54:41.971Z,102403.91
2022-08-11T05:57:49.448Z,102392.31
2022-08-11T06:00:01.717Z,102391.47
2022-08-11T06:02:30.722Z,102409.97
2022-08-11T06:05:02.451Z,102397.63
2022-08-11T06:07:47.196Z,102389.53
2022-08-11T06:10:28.308Z,102400.97
2022-08-11T06:12:58.453Z,102400.94
2022-08-11T06:15:28.653Z,102403.56
2022-08-11T06:17:59.023Z,102406.13
2022-08-11T06:20:36.831Z,102405.25
2022-08-11T06:23:08.889Z,102402.59
2022-08-11T06:25:38.495Z,102399.88
2022-08-11T06:28:08.283Z,102390.06
2022-08-11T06:30:42.960Z,102408.56
2022-08-11T06:33:14.974Z,102404.97
2022-08-11T06:36:01.072Z,102404.09
2022-08-11T06:38:43.478Z,102409.41
2022-08-11T06:41:33.932Z,102399.53
2022-08-11T06:44:16.418Z,102406.56
2022-08-11T06:46:48.419Z,102412.72
2022-08-11T06:49:36.532Z,102395.00
2022-08-11T06:52:32.148Z,102415.31
2022-08-11T06:54:58.160Z,102407.28
2022-08-11T06:57:43.785Z,102411.72
2022-08-11T07:00:32.991Z,102405.44
2022-08-11T07:03:08.546Z,102400.00
2022-08-11T07:05:46.451Z,102407.09
2022-08-11T07:09:08.234Z,102417.72
2022-08-11T07:12:21.221Z,102412.25
2022-08-11T07:15:10.840Z,102410.38
2022-08-11T07:17:49.893Z,102422.78
2022-08-11T07:20:37.551Z,102417.38
2022-08-11T07:23:43.321Z,102417.50
2022-08-11T07:26:33.226Z,102413.88
2022-08-11T07:29:04.421Z,102424.50
2022-08-11T07:31:37.303Z,102431.50
2022-08-11T07:34:19.603Z,102400.56
2022-08-11T07:36:52.868Z,102440.28
2022-08-11T07:39:25.505Z,102433.84
2022-08-11T07:41:58.429Z,102422.28
2022-08-11T07:44:34.608Z,102439.94
2022-08-11T07:47:36.252Z,102434.66
2022-08-11T07:50:21.922Z,102437.38
2022-08-11T07:52:52.821Z,102443.69
2022-08-11T07:55:50.280Z,102436.53
2022-08-11T07:58:45.033Z,102421.47
2022-08-11T08:01:40.324Z,102447.22
2022-08-11T08:04:29.590Z,102439.81
2022-08-11T08:07:16.463Z,102451.22
2022-08-11T08:10:03.675Z,102408.91
2022-08-11T08:12:50.354Z,102444.84
2022-08-11T08:15:37.003Z,102442.22
2022-08-11T08:18:26.273Z,102445.81
2022-08-11T08:21:12.186Z,102439.31
2022-08-11T08:23:42.088Z,102447.38
2022-08-11T08:26:28.516Z,102430.66
2022-08-11T08:29:18.628Z,102437.19
2022-08-11T08:31:48.689Z,102448.81
2022-08-11T08:34:19.745Z,102439.53
2022-08-11T08:36:49.992Z,102451.13
2022-08-11T08:39:21.895Z,102444.31
2022-08-11T08:41:54.277Z,102446.19
2022-08-11T08:44:41.382Z,102438.53
2022-08-11T08:47:14.473Z,102446.78
2022-08-11T08:49:49.516Z,102442.56
2022-08-11T08:52:30.934Z,102434.25
2022-08-11T08:55:06.628Z,102438.97
2022-08-11T08:57:37.311Z,102439.16
2022-08-11T09:00:19.393Z,102434.03
2022-08-11T09:02:51.457Z,102445.13
2022-08-11T09:05:21.821Z,102443.81
2022-08-11T09:07:58.272Z,102446.94
2022-08-11T09:10:27.355Z,102446.78
2022-08-11T09:12:57.380Z,102446.63
2022-08-11T09:15:26.320Z,102435.16
2022-08-11T09:18:03.735Z,102429.56
2022-08-11T09:20:35.595Z,102446.22
2022-08-11T09:26:32.035Z,102456.13
2022-08-11T09:29:01.774Z,102460.63
2022-08-11T09:31:39.031Z,102455.44
2022-08-11T09:34:09.377Z,102462.97
2022-08-11T09:36:57.744Z,102453.19
2022-08-11T09:39:44.884Z,102459.72
2022-08-11T09:42:16.378Z,102456.06
2022-08-11T09:44:48.836Z,102441.00
2022-08-11T09:47:24.764Z,102419.88
2022-08-11T09:50:00.356Z,102441.09
2022-08-11T09:52:32.517Z,102418.81
2022-08-11T09:55:02.407Z,102441.41
2022-08-11T09:57:48.289Z,102429.41
2022-08-11T10:00:17.490Z,102428.28
2022-08-11T10:02:48.628Z,102428.75
2022-08-11T10:05:37.151Z,102432.63
2022-08-11T10:08:08.971Z,102408.25
2022-08-11T10:10:39.236Z,102427.34
2022-08-11T10:14:30.573Z,102420.09
2022-08-11T10:16:15.268Z,102404.34
2022-08-11T10:18:53.331Z,102409.72
2022-08-11T10:21:35.172Z,102394.69
2022-08-11T10:24:25.757Z,102397.03
2022-08-11T10:27:00.110Z,102416.59
2022-08-11T10:29:51.198Z,102373.81
2022-08-11T10:32:58.939Z,102407.03
2022-08-11T10:35:29.650Z,102420.69
2022-08-11T10:38:07.413Z,102415.31
2022-08-11T10:41:08.266Z,102419.03
2022-08-11T10:44:01.936Z,102422.31
2022-08-11T10:46:44.915Z,102424.84
2022-08-11T10:49:13.627Z,102423.69
2022-08-11T10:52:00.313Z,102418.13
2022-08-11T10:54:46.722Z,102409.53
2022-08-11T10:57:36.130Z,102421.25
2022-08-11T11:00:07.107Z,102423.94
2022-08-11T11:02:36.204Z,102409.81
2022-08-11T11:05:11.471Z,102420.75
2022-08-11T11:07:44.735Z,102424.16
2022-08-11T11:10:13.074Z,102408.44
2022-08-11T11:13:03.057Z,102421.16
2022-08-11T11:15:51.224Z,102424.81
2022-08-11T11:18:22.798Z,102418.22
2022-08-11T11:20:58.059Z,102423.25
2022-08-11T11:23:34.246Z,102415.53
2022-08-11T11:26:39.927Z,102414.41
2022-08-11T11:29:46.153Z,102416.88
2022-08-11T11:32:28.467Z,102401.13
2022-08-11T11:35:11.443Z,102427.31
2022-08-11T11:37:42.052Z,102395.38
2022-08-11T11:40:31.606Z,102405.16
2022-08-11T11:43:01.605Z,102416.56
2022-08-11T11:45:31.646Z,102420.09
2022-08-11T11:48:02.421Z,102420.47
2022-08-11T11:50:34.570Z,102401.00
2022-08-11T11:53:05.698Z,102405.91
2022-08-11T11:55:34.746Z,102406.25
2022-08-11T11:58:33.723Z,102393.31
2022-08-11T12:01:20.231Z,102401.50
2022-08-11T12:03:52.201Z,102402.00
2022-08-11T12:06:22.737Z,102410.63
2022-08-11T12:08:59.260Z,102393.78
2022-08-11T12:11:53.635Z,102408.34
2022-08-11T12:14:25.896Z,102406.50
2022-08-11T12:16:57.446Z,102402.09
2022-08-11T12:19:35.889Z,102397.41
2022-08-11T12:22:22.113Z,102402.06
2022-08-11T12:25:07.857Z,102370.41
2022-08-11T12:27:38.903Z,102388.78
2022-08-11T12:30:09.628Z,102400.63
2022-08-11T12:32:41.450Z,102392.03
2022-08-11T12:35:11.593Z,102365.44
2022-08-11T12:37:43.747Z,102386.44
2022-08-11T12:40:43.549Z,102402.00
2022-08-11T12:43:41.267Z,102364.53
2022-08-11T12:46:11.403Z,102385.03
2022-08-11T12:49:04.327Z,102400.84
2022-08-11T12:52:10.996Z,102398.06
2022-08-11T12:54:51.794Z,102400.44
2022-08-11T12:57:44.621Z,102376.72
2022-08-11T13:00:31.374Z,102390.47
2022-08-11T13:03:18.182Z,102388.84
2022-08-11T13:05:50.836Z,102388.50
2022-08-11T13:08:21.290Z,102389.38
2022-08-11T13:11:10.186Z,102395.31
2022-08-11T13:13:55.042Z,102390.66
2022-08-11T13:16:27.985Z,102389.28
2022-08-11T13:18:59.844Z,102385.38
2022-08-11T13:21:30.131Z,102378.19
2022-08-11T13:24:00.635Z,102385.88
2022-08-11T13:26:48.620Z,102366.06
2022-08-11T13:29:23.278Z,102374.66
2022-08-11T13:31:52.972Z,102360.59
2022-08-11T13:34:22.650Z,102371.59
2022-08-11T13:36:55.134Z,102358.06
2022-08-11T13:39:25.131Z,102345.41
2022-08-11T13:41:56.928Z,102357.09
2022-08-11T13:44:29.083Z,102357.81
2022-08-11T13:47:01.816Z,102355.84
2022-08-11T13:49:32.238Z,102354.44
2022-08-11T13:52:03.665Z,102359.56
2022-08-11T13:54:36.518Z,102362.97
2022-08-11T13:57:09.002Z,102341.69
2022-08-11T13:59:44.312Z,102348.69
2022-08-11T14:02:29.055Z,102343.19
2022-08-11T14:05:00.503Z,102352.66
2022-08-11T14:07:36.529Z,102353.75
2022-08-11T14:10:07.910Z,102345.41
2022-08-11T14:12:56.117Z,102350.19
2022-08-11T14:15:29.187Z,102357.09
2022-08-11T14:18:03.721Z,102348.81
2022-08-11T14:20:54.250Z,102363.34
2022-08-11T14:23:28.229Z,102346.56
2022-08-11T14:26:15.248Z,102336.88
2022-08-11T14:28:45.267Z,102341.47
2022-08-11T14:31:15.853Z,102342.47
2022-08-11T14:33:59.662Z,102332.22
2022-08-11T14:36:33.230Z,102335.78
2022-08-11T14:39:07.044Z,102329.88
2022-08-11T14:42:10.484Z,102325.53
2022-08-11T14:45:01.828Z,102313.25
2022-08-11T14:47:32.823Z,102317.19
2022-08-11T14:50:10.941Z,102314.25
2022-08-11T14:52:46.058Z,102312.88
2022-08-11T14:55:34.097Z,102324.13
2022-08-11T14:58:03.629Z,102317.44
2022-08-11T15:00:34.584Z,102311.00
2022-08-11T15:03:13.973Z,102306.88
2022-08-11T15:05:56.319Z,102304.59
2022-08-11T15:08:49.688Z,102298.47
2022-08-11T15:11:39.530Z,102282.53
2022-08-11T15:14:11.047Z,102283.34
2022-08-11T15:17:00.293Z,102288.16
2022-08-11T15:19:40.716Z,102294.53
2022-08-11T15:22:28.493Z,102281.94
2022-08-11T15:24:58.595Z,102276.56
2022-08-11T15:27:48.743Z,102280.06
2022-08-11T15:30:35.519Z,102269.66
2022-08-11T15:33:24.772Z,102257.25
2022-08-11T15:36:11.746Z,102271.88
2022-08-11T15:38:45.693Z,102268.16
2022-08-11T15:41:36.323Z,102259.00
2022-08-11T15:44:51.348Z,102248.34
2022-08-11T15:47:20.427Z,102248.84
2022-08-11T15:50:11.614Z,102249.75
2022-08-11T15:52:48.511Z,102256.78
2022-08-11T15:55:19.021Z,102242.63
2022-08-11T15:58:08.100Z,102255.63
2022-08-11T16:00:59.036Z,102251.28
2022-08-11T16:04:07.635Z,102237.22
2022-08-11T16:06:40.395Z,102241.81
2022-08-11T16:09:18.410Z,102255.16
2022-08-11T16:11:48.686Z,102251.50
2022-08-11T16:14:36.561Z,102235.63
2022-08-11T16:17:08.604Z,102251.50
2022-08-11T16:19:41.232Z,102240.28
2022-08-11T16:22:12.410Z,102226.59
2022-08-11T16:26:30.362Z,102224.44
2022-08-11T16:27:37.030Z,102220.63
2022-08-11T16:30:07.109Z,102239.00
2022-08-11T16:32:40.077Z,102235.63
2022-08-11T16:35:29.546Z,102219.81
2022-08-11T16:38:16.476Z,102230.81
2022-08-11T16:40:46.146Z,102209.81
2022-08-11T16:43:35.869Z,102218.75
2022-08-11T16:46:32.379Z,102221.22
2022-08-11T16:49:05.808Z,102229.63
2022-08-11T16:51:34.882Z,102204.16
2022-08-11T16:54:04.696Z,102208.56
2022-08-11T16:56:38.829Z,102219.97
2022-08-11T16:59:15.844Z,102217.13
2022-08-11T17:01:49.569Z,102217.00
2022-08-11T17:04:43.878Z,102222.38
2022-08-11T17:07:42.336Z,102213.81
2022-08-11T17:10:52.510Z,102225.00
2022-08-11T17:13:29.628Z,102220.06
2022-08-11T17:16:09.750Z,102230.94
2022-08-11T17:18:50.339Z,102229.41
2022-08-11T17:21:27.529Z,102221.16
2022-08-11T17:23:59.267Z,102240.69
2022-08-11T17:26:53.101Z,102227.13
2022-08-11T17:29:26.099Z,102237.28
2022-08-11T17:32:13.846Z,102215.31
2022-08-11T17:35:03.667Z,102220.69
2022-08-11T17:37:38.130Z,102231.44
2022-08-11T17:40:12.669Z,102226.38
2022-08-11T17:43:02.629Z,102233.59
2022-08-11T17:45:51.887Z,102224.72
2022-08-11T17:48:27.062Z,102229.22
2022-08-11T17:50:57.592Z,102232.13
2022-08-11T17:54:13.416Z,102234.00
2022-08-11T17:56:54.011Z,102235.84
2022-08-11T17:59:39.983Z,102226.88
2022-08-11T18:02:37.189Z,102228.63
2022-08-11T18:05:12.955Z,102219.63
2022-08-11T18:08:02.104Z,102225.09
2022-08-11T18:10:51.377Z,102209.84
2022-08-11T18:13:42.256Z,102214.41
2022-08-11T18:16:29.380Z,102223.53
2022-08-11T18:19:15.562Z,102228.59
2022-08-11T18:22:14.432Z,102218.38
2022-08-11T18:25:06.487Z,102214.09
2022-08-11T18:27:55.138Z,102228.16
2022-08-11T18:30:42.835Z,102225.00
2022-08-11T18:36:42.211Z,102236.09
2022-08-11T18:39:30.856Z,102236.94
2022-08-11T18:42:29.251Z,102239.69
2022-08-11T18:45:20.668Z,102232.75
2022-08-11T18:48:09.254Z,102239.88
2022-08-11T18:51:30.865Z,102242.72
2022-08-11T18:54:13.457Z,102240.03
2022-08-11T18:57:00.921Z,102241.06
2022-08-11T18:59:50.262Z,102224.00
2022-08-11T19:02:48.453Z,102253.09
2022-08-11T19:06:08.328Z,102242.66
2022-08-11T19:08:47.121Z,102248.56
2022-08-11T19:11:33.724Z,102247.75
2022-08-11T19:14:20.714Z,102255.25
2022-08-11T19:17:08.465Z,102257.31
2022-08-11T19:19:59.290Z,102254.06
2022-08-11T19:22:48.603Z,102254.13
2022-08-11T19:25:37.178Z,102252.66
2022-08-11T19:28:25.909Z,102252.66
2022-08-11T19:31:13.027Z,102256.50
2022-08-11T19:34:09.742Z,102259.03
2022-08-11T19:37:01.684Z,102253.03
2022-08-11T19:39:49.384Z,102255.72
2022-08-11T19:42:35.846Z,102248.69
2022-08-11T19:45:23.281Z,102251.38
2022-08-11T19:48:30.590Z,102239.13
2022-08-11T19:51:16.776Z,102256.94
2022-08-11T19:54:04.536Z,102247.38
2022-08-11T19:56:52.013Z,102255.41
2022-08-11T19:59:39.456Z,102251.81
2022-08-11T20:02:28.510Z,102253.81
2022-08-11T20:05:14.638Z,102244.94
2022-08-11T20:08:01.420Z,102244.84
2022-08-11T20:10:53.227Z,102246.91
2022-08-11T20:13:42.544Z,102232.75
2022-08-11T20:16:31.187Z,102246.75
2022-08-11T20:19:20.022Z,102259.34
2022-08-11T20:22:14.352Z,102257.47
2022-08-11T20:25:03.304Z,102236.22
2022-08-11T20:27:55.571Z,102255.72
2022-08-11T20:30:41.861Z,102259.44
2022-08-11T20:33:28.737Z,102263.09
2022-08-11T20:36:14.505Z,102261.41
2022-08-11T20:39:02.635Z,102256.16
2022-08-11T20:41:59.161Z,102237.00
2022-08-11T20:44:48.697Z,102243.19
2022-08-11T20:47:59.134Z,102233.38
2022-08-11T20:50:45.935Z,102251.09
2022-08-11T20:53:36.076Z,102241.41
2022-08-11T20:56:28.822Z,102236.00
2022-08-11T20:59:18.746Z,102242.16
2022-08-11T21:02:09.908Z,102238.88
2022-08-11T21:04:57.522Z,102247.56
2022-08-11T21:07:55.603Z,102253.13
2022-08-11T21:10:51.256Z,102233.00
2022-08-11T21:13:39.555Z,102262.09
2022-08-11T21:16:32.385Z,102256.75
2022-08-11T21:19:59.481Z,102246.25
2022-08-11T21:22:37.698Z,102260.22
2022-08-11T21:25:25.621Z,102258.59
2022-08-11T21:28:13.476Z,102247.91
2022-08-11T21:30:59.711Z,102258.53
2022-08-11T21:33:46.699Z,102263.94
2022-08-11T21:36:33.692Z,102259.59
2022-08-11T21:39:24.911Z,102251.81
2022-08-11T21:42:12.751Z,102269.59
2022-08-11T21:45:00.568Z,102266.06
2022-08-11T21:47:46.942Z,102262.56
2022-08-11T21:50:35.397Z,102276.75
2022-08-11T21:53:22.572Z,102276.78
2022-08-11T21:56:10.529Z,102271.44
2022-08-11T21:58:58.084Z,102248.66
2022-08-11T22:01:53.489Z,102266.38
2022-08-11T22:04:40.094Z,102276.13
2022-08-11T22:07:27.233Z,102273.53
2022-08-11T22:10:41.540Z,102264.72
2022-08-11T22:13:20.079Z,102257.78
2022-08-11T22:16:06.106Z,102242.00
2022-08-11T22:18:53.900Z,102243.81
2022-08-11T22:22:01.216Z,102256.00
2022-08-11T22:24:47.487Z,102250.72
2022-08-11T22:27:35.550Z,102262.84
2022-08-11T22:30:21.345Z,102259.38
2022-08-11T22:33:07.304Z,102255.91
2022-08-11T22:35:54.401Z,102256.06
2022-08-11T22:38:40.553Z,102260.47
2022-08-11T22:41:26.425Z,102241.03
2022-08-11T22:44:13.572Z,102211.06
2022-08-11T22:47:01.060Z,102229.53
2022-08-11T22:49:58.275Z,102233.00
2022-08-11T22:52:46.736Z,102243.78
2022-08-11T22:55:33.036Z,102234.97
2022-08-11T22:58:20.596Z,102249.13
2022-08-11T23:01:08.186Z,102255.44
2022-08-11T23:03:55.342Z,102229.94
2022-08-11T23:06:41.702Z,102260.00
2022-08-11T23:09:28.555Z,102253.69
2022-08-11T23:12:14.034Z,102254.50
2022-08-11T23:15:00.172Z,102254.50
2022-08-11T23:17:47.477Z,102252.91
2022-08-11T23:20:36.133Z,102250.28
2022-08-11T23:23:38.977Z,102251.22
2022-08-11T23:26:25.984Z,102253.91
2022-08-11T23:29:15.217Z,102241.31
2022-08-11T23:32:01.890Z,102245.78
2022-08-11T23:35:03.431Z,102238.97
2022-08-11T23:37:51.664Z,102255.66
2022-08-11T23:40:37.215Z,102240.66
2022-08-11T23:43:23.750Z,102252.19
2022-08-11T23:46:09.290Z,102229.25
2022-08-11T23:48:56.540Z,102256.84
2022-08-11T23:51:44.652Z,102253.38
2022-08-11T23:54:36.603Z,102255.16
2022-08-11T23:57:23.611Z,102254.34
